sensor_id;sensor_type;location;lat;lon;timestamp;P1;durP1;ratioP1;P2;durP2;ratioP2
6667;SDS011;3370;47.712;9.082;2022-09-29T00:00:41;1.27;;;1.27;;
6667;SDS011;3370;47.712;9.082;2022-09-29T00:03:07;1.53;;;1.30;;
6667;SDS011;3370;47.712;9.082;2022-09-29T00:05:33;2.00;;;1.73;;
6667;SDS011;3370;47.712;9.082;2022-09-29T00:07:59;10.50;;;1.67;;
6667;SDS011;3370;47.712;9.082;2022-09-29T00:10:26;4.20;;;1.53;;
6667;SDS011;3370;47.712;9.082;2022-09-29T00:12:51;2.60;;;1.33;;
6667;SDS011;3370;47.712;9.082;2022-09-29T00:15:17;2.40;;;1.50;;
6667;SDS011;3370;47.712;9.082;2022-09-29T00:17:43;1.63;;;1.63;;
6667;SDS011;3370;47.712;9.082;2022-09-29T00:20:09;2.33;;;1.70;;
6667;SDS011;3370;47.712;9.082;2022-09-29T00:22:35;1.70;;;1.53;;
6667;SDS011;3370;47.712;9.082;2022-09-29T00:25:01;1.50;;;1.43;;
6667;SDS011;3370;47.712;9.082;2022-09-29T00:27:27;1.70;;;1.60;;
6667;SDS011;3370;47.712;9.082;2022-09-29T00:29:52;1.43;;;1.43;;
6667;SDS011;3370;47.712;9.082;2022-09-29T00:32:18;1.40;;;1.30;;
6667;SDS011;3370;47.712;9.082;2022-09-29T00:34:44;1.73;;;1.60;;
6667;SDS011;3370;47.712;9.082;2022-09-29T00:37:10;1.60;;;1.50;;
6667;SDS011;3370;47.712;9.082;2022-09-29T00:39:35;1.33;;;1.33;;
6667;SDS011;3370;47.712;9.082;2022-09-29T00:42:01;13.20;;;10.50;;
6667;SDS011;3370;47.712;9.082;2022-09-29T00:47:28;3.27;;;1.70;;
6667;SDS011;3370;47.712;9.082;2022-09-29T00:49:59;1.93;;;1.73;;
6667;SDS011;3370;47.712;9.082;2022-09-29T00:52:40;1.47;;;1.37;;
6667;SDS011;3370;47.712;9.082;2022-09-29T00:55:17;1.50;;;1.40;;
6667;SDS011;3370;47.712;9.082;2022-09-29T00:57:57;1.23;;;1.23;;
6667;SDS011;3370;47.712;9.082;2022-09-29T01:00:35;1.63;;;1.50;;
6667;SDS011;3370;47.712;9.082;2022-09-29T01:03:04;1.57;;;1.57;;
6667;SDS011;3370;47.712;9.082;2022-09-29T01:05:42;1.93;;;1.30;;
6667;SDS011;3370;47.712;9.082;2022-09-29T01:11:15;1.57;;;1.47;;
6667;SDS011;3370;47.712;9.082;2022-09-29T01:13:45;1.40;;;1.40;;
6667;SDS011;3370;47.712;9.082;2022-09-29T01:16:12;1.10;;;1.10;;
6667;SDS011;3370;47.712;9.082;2022-09-29T01:18:39;1.57;;;1.47;;
6667;SDS011;3370;47.712;9.082;2022-09-29T01:21:16;1.13;;;1.13;;
6667;SDS011;3370;47.712;9.082;2022-09-29T01:36:02;1.50;;;1.40;;
6667;SDS011;3370;47.712;9.082;2022-09-29T01:41:15;1.30;;;1.30;;
6667;SDS011;3370;47.712;9.082;2022-09-29T01:44:12;1.17;;;1.00;;
6667;SDS011;3370;47.712;9.082;2022-09-29T01:47:12;1.20;;;1.20;;
6667;SDS011;3370;47.712;9.082;2022-09-29T01:49:44;1.23;;;1.20;;
6667;SDS011;3370;47.712;9.082;2022-09-29T01:52:24;1.20;;;1.10;;
6667;SDS011;3370;47.712;9.082;2022-09-29T01:55:01;1.17;;;1.00;;
6667;SDS011;3370;47.712;9.082;2022-09-29T02:00:18;3.90;;;1.40;;
6667;SDS011;3370;47.712;9.082;2022-09-29T02:05:33;1.57;;;1.17;;
6667;SDS011;3370;47.712;9.082;2022-09-29T02:08:10;1.27;;;1.20;;
6667;SDS011;3370;47.712;9.082;2022-09-29T02:11:23;1.07;;;1.07;;
6667;SDS011;3370;47.712;9.082;2022-09-29T02:13:48;1.10;;;1.10;;
6667;SDS011;3370;47.712;9.082;2022-09-29T02:16:31;1.10;;;1.10;;
6667;SDS011;3370;47.712;9.082;2022-09-29T02:19:09;1.20;;;1.20;;
6667;SDS011;3370;47.712;9.082;2022-09-29T02:21:44;1.20;;;1.20;;
6667;SDS011;3370;47.712;9.082;2022-09-29T02:24:11;1.13;;;1.13;;
6667;SDS011;3370;47.712;9.082;2022-09-29T02:26:37;1.33;;;1.23;;
6667;SDS011;3370;47.712;9.082;2022-09-29T02:29:05;4.47;;;1.47;;
6667;SDS011;3370;47.712;9.082;2022-09-29T02:31:33;1.80;;;1.27;;
6667;SDS011;3370;47.712;9.082;2022-09-29T02:34:01;2.30;;;1.23;;
6667;SDS011;3370;47.712;9.082;2022-09-29T02:36:53;1.47;;;1.13;;
6667;SDS011;3370;47.712;9.082;2022-09-29T02:39:39;1.63;;;1.40;;
6667;SDS011;3370;47.712;9.082;2022-09-29T02:42:41;1.50;;;1.50;;
6667;SDS011;3370;47.712;9.082;2022-09-29T02:45:28;1.30;;;1.30;;
6667;SDS011;3370;47.712;9.082;2022-09-29T02:48:20;1.10;;;1.10;;
6667;SDS011;3370;47.712;9.082;2022-09-29T02:51:12;1.30;;;1.30;;
6667;SDS011;3370;47.712;9.082;2022-09-29T03:00:00;1.30;;;1.30;;
6667;SDS011;3370;47.712;9.082;2022-09-29T03:02:38;1.70;;;1.33;;
6667;SDS011;3370;47.712;9.082;2022-09-29T03:05:07;1.60;;;1.50;;
6667;SDS011;3370;47.712;9.082;2022-09-29T03:07:44;1.53;;;1.43;;
6667;SDS011;3370;47.712;9.082;2022-09-29T03:10:11;1.50;;;1.40;;
6667;SDS011;3370;47.712;9.082;2022-09-29T03:12:38;1.80;;;1.70;;
6667;SDS011;3370;47.712;9.082;2022-09-29T03:15:04;1.90;;;1.80;;
6667;SDS011;3370;47.712;9.082;2022-09-29T03:17:31;1.60;;;1.50;;
6667;SDS011;3370;47.712;9.082;2022-09-29T03:19:58;1.70;;;1.60;;
6667;SDS011;3370;47.712;9.082;2022-09-29T03:22:24;1.50;;;1.50;;
6667;SDS011;3370;47.712;9.082;2022-09-29T03:24:50;1.40;;;1.40;;
6667;SDS011;3370;47.712;9.082;2022-09-29T03:27:16;1.60;;;1.50;;
6667;SDS011;3370;47.712;9.082;2022-09-29T03:29:42;3.23;;;1.50;;
6667;SDS011;3370;47.712;9.082;2022-09-29T03:32:08;2.10;;;1.60;;
6667;SDS011;3370;47.712;9.082;2022-09-29T03:34:34;1.57;;;1.53;;
6667;SDS011;3370;47.712;9.082;2022-09-29T03:37:01;2.60;;;1.60;;
6667;SDS011;3370;47.712;9.082;2022-09-29T03:39:29;1.40;;;1.40;;
6667;SDS011;3370;47.712;9.082;2022-09-29T03:41:55;4.83;;;2.13;;
6667;SDS011;3370;47.712;9.082;2022-09-29T03:44:20;2.50;;;1.77;;
6667;SDS011;3370;47.712;9.082;2022-09-29T03:46:46;2.07;;;1.97;;
6667;SDS011;3370;47.712;9.082;2022-09-29T03:49:12;1.60;;;1.50;;
6667;SDS011;3370;47.712;9.082;2022-09-29T03:51:42;5.40;;;1.80;;
6667;SDS011;3370;47.712;9.082;2022-09-29T03:54:09;3.03;;;2.07;;
6667;SDS011;3370;47.712;9.082;2022-09-29T03:56:36;1.63;;;1.53;;
6667;SDS011;3370;47.712;9.082;2022-09-29T03:59:02;2.87;;;1.60;;
6667;SDS011;3370;47.712;9.082;2022-09-29T04:01:32;1.77;;;1.67;;
6667;SDS011;3370;47.712;9.082;2022-09-29T04:03:58;10.33;;;1.70;;
6667;SDS011;3370;47.712;9.082;2022-09-29T04:06:25;1.93;;;1.87;;
6667;SDS011;3370;47.712;9.082;2022-09-29T04:08:51;2.70;;;1.70;;
6667;SDS011;3370;47.712;9.082;2022-09-29T04:11:17;2.70;;;2.00;;
6667;SDS011;3370;47.712;9.082;2022-09-29T04:13:42;1.90;;;1.80;;
6667;SDS011;3370;47.712;9.082;2022-09-29T04:16:08;1.77;;;1.67;;
6667;SDS011;3370;47.712;9.082;2022-09-29T04:18:35;2.13;;;2.03;;
6667;SDS011;3370;47.712;9.082;2022-09-29T04:21:05;5.80;;;1.87;;
6667;SDS011;3370;47.712;9.082;2022-09-29T04:23:32;8.87;;;2.07;;
6667;SDS011;3370;47.712;9.082;2022-09-29T04:26:00;2.73;;;2.07;;
6667;SDS011;3370;47.712;9.082;2022-09-29T04:28:26;4.20;;;2.70;;
6667;SDS011;3370;47.712;9.082;2022-09-29T04:30:54;3.73;;;2.30;;
6667;SDS011;3370;47.712;9.082;2022-09-29T04:33:20;2.50;;;2.40;;
6667;SDS011;3370;47.712;9.082;2022-09-29T04:35:46;3.07;;;2.60;;
6667;SDS011;3370;47.712;9.082;2022-09-29T04:38:12;2.30;;;2.20;;
6667;SDS011;3370;47.712;9.082;2022-09-29T04:40:37;6.73;;;2.80;;
6667;SDS011;3370;47.712;9.082;2022-09-29T04:43:04;2.77;;;2.53;;
6667;SDS011;3370;47.712;9.082;2022-09-29T04:45:30;6.57;;;2.67;;
6667;SDS011;3370;47.712;9.082;2022-09-29T04:47:56;2.63;;;2.40;;
6667;SDS011;3370;47.712;9.082;2022-09-29T04:50:22;2.87;;;2.53;;
6667;SDS011;3370;47.712;9.082;2022-09-29T04:52:48;8.60;;;2.30;;
6667;SDS011;3370;47.712;9.082;2022-09-29T04:55:15;2.30;;;2.10;;
6667;SDS011;3370;47.712;9.082;2022-09-29T04:57:41;3.47;;;2.70;;
6667;SDS011;3370;47.712;9.082;2022-09-29T05:00:08;2.20;;;2.10;;
6667;SDS011;3370;47.712;9.082;2022-09-29T05:02:36;2.83;;;2.63;;
6667;SDS011;3370;47.712;9.082;2022-09-29T05:05:02;2.87;;;2.10;;
6667;SDS011;3370;47.712;9.082;2022-09-29T05:07:30;3.23;;;2.40;;
6667;SDS011;3370;47.712;9.082;2022-09-29T05:09:58;2.43;;;2.23;;
6667;SDS011;3370;47.712;9.082;2022-09-29T05:12:24;3.60;;;2.37;;
6667;SDS011;3370;47.712;9.082;2022-09-29T05:14:50;2.47;;;2.37;;
6667;SDS011;3370;47.712;9.082;2022-09-29T05:17:16;2.40;;;2.20;;
6667;SDS011;3370;47.712;9.082;2022-09-29T05:19:42;2.37;;;2.27;;
6667;SDS011;3370;47.712;9.082;2022-09-29T05:22:08;3.10;;;2.80;;
6667;SDS011;3370;47.712;9.082;2022-09-29T05:24:34;2.50;;;2.40;;
6667;SDS011;3370;47.712;9.082;2022-09-29T05:27:00;2.87;;;2.67;;
6667;SDS011;3370;47.712;9.082;2022-09-29T05:29:25;3.10;;;2.90;;
6667;SDS011;3370;47.712;9.082;2022-09-29T05:31:51;3.40;;;3.10;;
6667;SDS011;3370;47.712;9.082;2022-09-29T05:34:17;5.20;;;2.90;;
6667;SDS011;3370;47.712;9.082;2022-09-29T05:36:43;3.43;;;3.20;;
6667;SDS011;3370;47.712;9.082;2022-09-29T05:39:09;3.10;;;2.90;;
6667;SDS011;3370;47.712;9.082;2022-09-29T05:41:35;4.23;;;3.30;;
6667;SDS011;3370;47.712;9.082;2022-09-29T05:44:01;4.50;;;4.20;;
6667;SDS011;3370;47.712;9.082;2022-09-29T05:46:27;4.33;;;2.77;;
6667;SDS011;3370;47.712;9.082;2022-09-29T05:48:53;2.90;;;2.70;;
6667;SDS011;3370;47.712;9.082;2022-09-29T05:51:21;3.00;;;2.80;;
6667;SDS011;3370;47.712;9.082;2022-09-29T05:53:48;6.40;;;5.90;;
6667;SDS011;3370;47.712;9.082;2022-09-29T05:56:16;4.33;;;4.03;;
6667;SDS011;3370;47.712;9.082;2022-09-29T05:58:45;3.40;;;3.20;;
6667;SDS011;3370;47.712;9.082;2022-09-29T06:01:15;5.50;;;3.60;;
6667;SDS011;3370;47.712;9.082;2022-09-29T06:03:44;3.57;;;3.27;;
6667;SDS011;3370;47.712;9.082;2022-09-29T06:06:11;3.07;;;2.70;;
6667;SDS011;3370;47.712;9.082;2022-09-29T06:08:46;3.17;;;2.97;;
6667;SDS011;3370;47.712;9.082;2022-09-29T06:11:17;4.43;;;3.33;;
6667;SDS011;3370;47.712;9.082;2022-09-29T06:13:49;3.87;;;3.57;;
6667;SDS011;3370;47.712;9.082;2022-09-29T06:16:17;3.40;;;3.07;;
6667;SDS011;3370;47.712;9.082;2022-09-29T06:18:46;3.27;;;3.07;;
6667;SDS011;3370;47.712;9.082;2022-09-29T06:21:13;3.10;;;2.90;;
6667;SDS011;3370;47.712;9.082;2022-09-29T06:23:48;2.83;;;2.63;;
6667;SDS011;3370;47.712;9.082;2022-09-29T06:26:16;3.30;;;3.10;;
6667;SDS011;3370;47.712;9.082;2022-09-29T06:28:43;3.70;;;3.00;;
6667;SDS011;3370;47.712;9.082;2022-09-29T06:31:10;5.50;;;2.40;;
6667;SDS011;3370;47.712;9.082;2022-09-29T06:33:39;3.17;;;2.97;;
6667;SDS011;3370;47.712;9.082;2022-09-29T06:39:25;3.53;;;3.23;;
6667;SDS011;3370;47.712;9.082;2022-09-29T06:41:51;4.70;;;3.53;;
6667;SDS011;3370;47.712;9.082;2022-09-29T06:44:20;5.70;;;2.90;;
6667;SDS011;3370;47.712;9.082;2022-09-29T06:46:49;3.90;;;3.13;;
6667;SDS011;3370;47.712;9.082;2022-09-29T06:49:15;3.57;;;2.70;;
6667;SDS011;3370;47.712;9.082;2022-09-29T06:51:42;4.23;;;2.93;;
6667;SDS011;3370;47.712;9.082;2022-09-29T06:54:09;3.30;;;2.93;;
6667;SDS011;3370;47.712;9.082;2022-09-29T06:56:39;3.70;;;3.30;;
6667;SDS011;3370;47.712;9.082;2022-09-29T06:59:06;3.93;;;3.27;;
6667;SDS011;3370;47.712;9.082;2022-09-29T07:01:32;4.73;;;3.00;;
6667;SDS011;3370;47.712;9.082;2022-09-29T07:03:58;2.80;;;2.43;;
6667;SDS011;3370;47.712;9.082;2022-09-29T07:06:26;3.20;;;2.87;;
6667;SDS011;3370;47.712;9.082;2022-09-29T07:08:53;4.00;;;2.70;;
6667;SDS011;3370;47.712;9.082;2022-09-29T07:11:20;2.60;;;2.40;;
6667;SDS011;3370;47.712;9.082;2022-09-29T07:13:46;3.30;;;3.00;;
6667;SDS011;3370;47.712;9.082;2022-09-29T07:16:15;4.90;;;2.60;;
6667;SDS011;3370;47.712;9.082;2022-09-29T07:18:41;3.43;;;2.83;;
6667;SDS011;3370;47.712;9.082;2022-09-29T07:21:08;4.40;;;2.20;;
6667;SDS011;3370;47.712;9.082;2022-09-29T07:23:37;2.90;;;2.70;;
6667;SDS011;3370;47.712;9.082;2022-09-29T07:26:04;2.10;;;2.00;;
6667;SDS011;3370;47.712;9.082;2022-09-29T07:28:31;2.07;;;1.97;;
6667;SDS011;3370;47.712;9.082;2022-09-29T07:30:59;1.60;;;1.50;;
6667;SDS011;3370;47.712;9.082;2022-09-29T07:33:31;1.80;;;1.80;;
6667;SDS011;3370;47.712;9.082;2022-09-29T07:35:58;1.87;;;1.57;;
6667;SDS011;3370;47.712;9.082;2022-09-29T07:38:28;1.43;;;1.40;;
6667;SDS011;3370;47.712;9.082;2022-09-29T07:41:01;1.33;;;1.33;;
6667;SDS011;3370;47.712;9.082;2022-09-29T07:43:29;1.30;;;1.30;;
6667;SDS011;3370;47.712;9.082;2022-09-29T07:45:56;1.20;;;1.10;;
6667;SDS011;3370;47.712;9.082;2022-09-29T07:48:24;0.97;;;0.97;;
6667;SDS011;3370;47.712;9.082;2022-09-29T07:50:50;1.10;;;1.10;;
6667;SDS011;3370;47.712;9.082;2022-09-29T07:53:16;3.70;;;1.40;;
6667;SDS011;3370;47.712;9.082;2022-09-29T07:55:43;0.93;;;0.90;;
6667;SDS011;3370;47.712;9.082;2022-09-29T07:58:08;1.13;;;1.13;;
6667;SDS011;3370;47.712;9.082;2022-09-29T08:00:34;0.90;;;0.90;;
6667;SDS011;3370;47.712;9.082;2022-09-29T08:03:01;1.00;;;1.00;;
6667;SDS011;3370;47.712;9.082;2022-09-29T08:05:29;1.07;;;1.07;;
6667;SDS011;3370;47.712;9.082;2022-09-29T08:07:58;0.70;;;0.70;;
6667;SDS011;3370;47.712;9.082;2022-09-29T08:10:26;1.27;;;1.00;;
6667;SDS011;3370;47.712;9.082;2022-09-29T08:12:53;1.13;;;1.13;;
6667;SDS011;3370;47.712;9.082;2022-09-29T08:15:19;1.40;;;1.40;;
6667;SDS011;3370;47.712;9.082;2022-09-29T08:17:46;1.03;;;1.03;;
6667;SDS011;3370;47.712;9.082;2022-09-29T08:20:12;1.90;;;1.10;;
6667;SDS011;3370;47.712;9.082;2022-09-29T08:22:38;1.40;;;1.10;;
6667;SDS011;3370;47.712;9.082;2022-09-29T08:25:03;1.47;;;1.47;;
6667;SDS011;3370;47.712;9.082;2022-09-29T08:27:30;1.13;;;1.10;;
6667;SDS011;3370;47.712;9.082;2022-09-29T08:29:55;1.23;;;1.23;;
6667;SDS011;3370;47.712;9.082;2022-09-29T08:32:22;1.10;;;1.10;;
6667;SDS011;3370;47.712;9.082;2022-09-29T08:34:49;2.30;;;1.50;;
6667;SDS011;3370;47.712;9.082;2022-09-29T08:37:15;1.30;;;1.30;;
6667;SDS011;3370;47.712;9.082;2022-09-29T08:39:41;1.80;;;1.07;;
6667;SDS011;3370;47.712;9.082;2022-09-29T08:42:20;1.40;;;1.30;;
6667;SDS011;3370;47.712;9.082;2022-09-29T08:45:29;1.60;;;1.50;;
6667;SDS011;3370;47.712;9.082;2022-09-29T08:48:13;2.00;;;1.80;;
6667;SDS011;3370;47.712;9.082;2022-09-29T08:53:27;1.80;;;1.70;;
6667;SDS011;3370;47.712;9.082;2022-09-29T08:56:02;1.73;;;1.63;;
6667;SDS011;3370;47.712;9.082;2022-09-29T08:58:37;1.90;;;1.80;;
6667;SDS011;3370;47.712;9.082;2022-09-29T09:01:07;1.43;;;1.40;;
6667;SDS011;3370;47.712;9.082;2022-09-29T09:03:56;1.53;;;1.40;;
6667;SDS011;3370;47.712;9.082;2022-09-29T09:09:45;1.57;;;1.43;;
6667;SDS011;3370;47.712;9.082;2022-09-29T09:18:40;2.43;;;2.13;;
6667;SDS011;3370;47.712;9.082;2022-09-29T09:21:41;2.83;;;1.73;;
6667;SDS011;3370;47.712;9.082;2022-09-29T09:24:16;2.93;;;2.30;;
6667;SDS011;3370;47.712;9.082;2022-09-29T09:27:00;2.23;;;1.97;;
6667;SDS011;3370;47.712;9.082;2022-09-29T09:29:31;6.27;;;2.27;;
6667;SDS011;3370;47.712;9.082;2022-09-29T09:32:11;3.10;;;2.30;;
6667;SDS011;3370;47.712;9.082;2022-09-29T09:34:54;3.63;;;2.33;;
6667;SDS011;3370;47.712;9.082;2022-09-29T09:37:33;2.07;;;1.87;;
6667;SDS011;3370;47.712;9.082;2022-09-29T09:42:39;1.70;;;1.60;;
6667;SDS011;3370;47.712;9.082;2022-09-29T09:51:31;4.67;;;1.80;;
6667;SDS011;3370;47.712;9.082;2022-09-29T09:54:15;5.67;;;1.60;;
6667;SDS011;3370;47.712;9.082;2022-09-29T10:00:16;4.00;;;1.80;;
6667;SDS011;3370;47.712;9.082;2022-09-29T10:03:08;2.60;;;2.00;;
6667;SDS011;3370;47.712;9.082;2022-09-29T10:05:37;3.20;;;1.90;;
6667;SDS011;3370;47.712;9.082;2022-09-29T10:08:09;11.20;;;2.13;;
6667;SDS011;3370;47.712;9.082;2022-09-29T10:10:45;2.23;;;2.07;;
6667;SDS011;3370;47.712;9.082;2022-09-29T10:13:12;7.50;;;1.87;;
6667;SDS011;3370;47.712;9.082;2022-09-29T10:15:45;2.70;;;1.40;;
6667;SDS011;3370;47.712;9.082;2022-09-29T10:18:46;1.87;;;1.53;;
6667;SDS011;3370;47.712;9.082;2022-09-29T10:21:20;2.30;;;1.50;;
6667;SDS011;3370;47.712;9.082;2022-09-29T10:23:51;1.73;;;1.43;;
6667;SDS011;3370;47.712;9.082;2022-09-29T10:28:57;3.30;;;1.33;;
6667;SDS011;3370;47.712;9.082;2022-09-29T10:31:42;1.20;;;1.10;;
6667;SDS011;3370;47.712;9.082;2022-09-29T10:34:22;1.73;;;1.30;;
6667;SDS011;3370;47.712;9.082;2022-09-29T10:36:52;2.57;;;2.27;;
6667;SDS011;3370;47.712;9.082;2022-09-29T10:39:40;2.10;;;1.87;;
6667;SDS011;3370;47.712;9.082;2022-09-29T10:44:48;3.03;;;1.60;;
6667;SDS011;3370;47.712;9.082;2022-09-29T10:47:25;1.50;;;1.40;;
6667;SDS011;3370;47.712;9.082;2022-09-29T10:52:47;2.10;;;2.00;;
6667;SDS011;3370;47.712;9.082;2022-09-29T10:55:29;2.10;;;1.87;;
6667;SDS011;3370;47.712;9.082;2022-09-29T10:58:02;4.10;;;2.40;;
6667;SDS011;3370;47.712;9.082;2022-09-29T11:00:48;2.60;;;1.40;;
6667;SDS011;3370;47.712;9.082;2022-09-29T11:03:26;2.57;;;1.90;;
6667;SDS011;3370;47.712;9.082;2022-09-29T11:08:31;1.50;;;1.50;;
6667;SDS011;3370;47.712;9.082;2022-09-29T11:11:04;1.37;;;1.37;;
6667;SDS011;3370;47.712;9.082;2022-09-29T11:13:48;2.00;;;1.27;;
6667;SDS011;3370;47.712;9.082;2022-09-29T11:16:18;1.00;;;1.00;;
6667;SDS011;3370;47.712;9.082;2022-09-29T11:18:53;3.60;;;1.40;;
6667;SDS011;3370;47.712;9.082;2022-09-29T11:24:10;2.40;;;1.00;;
6667;SDS011;3370;47.712;9.082;2022-09-29T11:43:52;1.30;;;1.20;;
6667;SDS011;3370;47.712;9.082;2022-09-29T11:46:57;1.20;;;1.20;;
6667;SDS011;3370;47.712;9.082;2022-09-29T11:49:47;1.60;;;1.50;;
6667;SDS011;3370;47.712;9.082;2022-09-29T11:52:50;1.87;;;1.73;;
6667;SDS011;3370;47.712;9.082;2022-09-29T12:01:20;1.23;;;1.17;;
6667;SDS011;3370;47.712;9.082;2022-09-29T12:06:54;1.87;;;1.40;;
6667;SDS011;3370;47.712;9.082;2022-09-29T12:12:55;1.30;;;1.30;;
6667;SDS011;3370;47.712;9.082;2022-09-29T12:18:06;4.47;;;1.00;;
6667;SDS011;3370;47.712;9.082;2022-09-29T12:20:43;1.60;;;1.33;;
6667;SDS011;3370;47.712;9.082;2022-09-29T12:23:13;1.10;;;1.10;;
6667;SDS011;3370;47.712;9.082;2022-09-29T12:25:56;1.43;;;1.30;;
6667;SDS011;3370;47.712;9.082;2022-09-29T12:28:59;1.17;;;1.07;;
6667;SDS011;3370;47.712;9.082;2022-09-29T12:31:43;2.67;;;1.47;;
6667;SDS011;3370;47.712;9.082;2022-09-29T12:34:19;1.33;;;1.23;;
6667;SDS011;3370;47.712;9.082;2022-09-29T12:37:14;2.00;;;1.00;;
6667;SDS011;3370;47.712;9.082;2022-09-29T12:59:48;0.90;;;0.90;;
6667;SDS011;3370;47.712;9.082;2022-09-29T13:13:59;0.83;;;0.83;;
6667;SDS011;3370;47.712;9.082;2022-09-29T13:19:59;0.80;;;0.80;;
6667;SDS011;3370;47.712;9.082;2022-09-29T13:25:31;0.70;;;0.70;;
6667;SDS011;3370;47.712;9.082;2022-09-29T13:28:50;0.80;;;0.80;;
6667;SDS011;3370;47.712;9.082;2022-09-29T13:31:22;0.87;;;0.70;;
6667;SDS011;3370;47.712;9.082;2022-09-29T13:33:57;0.80;;;0.80;;
6667;SDS011;3370;47.712;9.082;2022-09-29T13:36:29;1.00;;;1.00;;
6667;SDS011;3370;47.712;9.082;2022-09-29T13:39:07;0.87;;;0.87;;
6667;SDS011;3370;47.712;9.082;2022-09-29T13:41:47;0.90;;;0.90;;
6667;SDS011;3370;47.712;9.082;2022-09-29T13:46:42;1.17;;;1.17;;
6667;SDS011;3370;47.712;9.082;2022-09-29T13:51:47;1.43;;;1.03;;
6667;SDS011;3370;47.712;9.082;2022-09-29T13:59:37;1.23;;;1.10;;
6667;SDS011;3370;47.712;9.082;2022-09-29T14:10:40;0.90;;;0.90;;
6667;SDS011;3370;47.712;9.082;2022-09-29T14:13:16;1.70;;;1.13;;
6667;SDS011;3370;47.712;9.082;2022-09-29T14:16:04;0.97;;;0.97;;
6667;SDS011;3370;47.712;9.082;2022-09-29T14:21:58;2.60;;;1.17;;
6667;SDS011;3370;47.712;9.082;2022-09-29T14:35:34;5.50;;;0.90;;
6667;SDS011;3370;47.712;9.082;2022-09-29T14:38:16;0.80;;;0.80;;
6667;SDS011;3370;47.712;9.082;2022-09-29T14:50:02;0.90;;;0.90;;
6667;SDS011;3370;47.712;9.082;2022-09-29T14:53:52;1.50;;;1.07;;
6667;SDS011;3370;47.712;9.082;2022-09-29T14:59:18;0.80;;;0.80;;
6667;SDS011;3370;47.712;9.082;2022-09-29T15:04:42;6.10;;;2.33;;
6667;SDS011;3370;47.712;9.082;2022-09-29T15:07:10;1.10;;;1.10;;
6667;SDS011;3370;47.712;9.082;2022-09-29T15:09:44;0.93;;;0.80;;
6667;SDS011;3370;47.712;9.082;2022-09-29T15:12:21;0.67;;;0.67;;
6667;SDS011;3370;47.712;9.082;2022-09-29T15:14:56;3.23;;;1.17;;
6667;SDS011;3370;47.712;9.082;2022-09-29T15:17:43;1.97;;;1.20;;
6667;SDS011;3370;47.712;9.082;2022-09-29T15:20:22;3.10;;;1.30;;
6667;SDS011;3370;47.712;9.082;2022-09-29T15:25:44;1.03;;;1.03;;
6667;SDS011;3370;47.712;9.082;2022-09-29T15:30:42;1.43;;;1.33;;
6667;SDS011;3370;47.712;9.082;2022-09-29T15:33:15;2.77;;;1.30;;
6667;SDS011;3370;47.712;9.082;2022-09-29T15:36:35;3.07;;;1.03;;
6667;SDS011;3370;47.712;9.082;2022-09-29T15:38:53;1.97;;;1.13;;
6667;SDS011;3370;47.712;9.082;2022-09-29T15:41:31;1.17;;;0.90;;
6667;SDS011;3370;47.712;9.082;2022-09-29T15:44:03;0.80;;;0.80;;
6667;SDS011;3370;47.712;9.082;2022-09-29T15:46:59;1.00;;;1.00;;
6667;SDS011;3370;47.712;9.082;2022-09-29T15:49:29;1.00;;;0.90;;
6667;SDS011;3370;47.712;9.082;2022-09-29T15:51:59;3.33;;;1.20;;
6667;SDS011;3370;47.712;9.082;2022-09-29T15:54:29;1.00;;;1.00;;
6667;SDS011;3370;47.712;9.082;2022-09-29T15:57:05;1.10;;;1.00;;
6667;SDS011;3370;47.712;9.082;2022-09-29T15:59:54;1.00;;;1.00;;
6667;SDS011;3370;47.712;9.082;2022-09-29T16:02:36;1.10;;;1.10;;
6667;SDS011;3370;47.712;9.082;2022-09-29T16:05:11;1.17;;;1.17;;
6667;SDS011;3370;47.712;9.082;2022-09-29T16:07:48;1.30;;;1.20;;
6667;SDS011;3370;47.712;9.082;2022-09-29T16:10:27;0.83;;;0.83;;
6667;SDS011;3370;47.712;9.082;2022-09-29T16:13:05;1.30;;;1.30;;
6667;SDS011;3370;47.712;9.082;2022-09-29T16:15:46;0.87;;;0.83;;
6667;SDS011;3370;47.712;9.082;2022-09-29T16:21:17;1.20;;;1.20;;
6667;SDS011;3370;47.712;9.082;2022-09-29T16:29:04;4.53;;;4.23;;
6667;SDS011;3370;47.712;9.082;2022-09-29T16:31:33;2.40;;;2.30;;
6667;SDS011;3370;47.712;9.082;2022-09-29T16:34:03;5.73;;;5.27;;
6667;SDS011;3370;47.712;9.082;2022-09-29T16:36:46;11.77;;;8.90;;
6667;SDS011;3370;47.712;9.082;2022-09-29T16:39:30;6.47;;;4.47;;
6667;SDS011;3370;47.712;9.082;2022-09-29T16:42:18;3.33;;;3.00;;
6667;SDS011;3370;47.712;9.082;2022-09-29T16:44:54;8.17;;;5.77;;
6667;SDS011;3370;47.712;9.082;2022-09-29T16:57:56;6.33;;;5.60;;
6667;SDS011;3370;47.712;9.082;2022-09-29T17:00:37;4.53;;;4.23;;
6667;SDS011;3370;47.712;9.082;2022-09-29T17:03:04;3.63;;;2.63;;
6667;SDS011;3370;47.712;9.082;2022-09-29T17:05:33;1.70;;;1.60;;
6667;SDS011;3370;47.712;9.082;2022-09-29T17:08:11;1.73;;;1.63;;
6667;SDS011;3370;47.712;9.082;2022-09-29T17:10:51;1.30;;;1.20;;
6667;SDS011;3370;47.712;9.082;2022-09-29T17:13:19;2.90;;;1.17;;
6667;SDS011;3370;47.712;9.082;2022-09-29T17:15:48;3.13;;;1.30;;
6667;SDS011;3370;47.712;9.082;2022-09-29T17:18:17;0.70;;;0.70;;
6667;SDS011;3370;47.712;9.082;2022-09-29T17:20:44;1.30;;;1.17;;
6667;SDS011;3370;47.712;9.082;2022-09-29T17:23:10;1.20;;;1.20;;
6667;SDS011;3370;47.712;9.082;2022-09-29T17:25:40;1.73;;;1.63;;
6667;SDS011;3370;47.712;9.082;2022-09-29T17:28:16;2.00;;;1.90;;
6667;SDS011;3370;47.712;9.082;2022-09-29T17:30:50;1.80;;;1.70;;
6667;SDS011;3370;47.712;9.082;2022-09-29T17:33:19;3.27;;;2.80;;
6667;SDS011;3370;47.712;9.082;2022-09-29T17:35:46;7.50;;;4.00;;
6667;SDS011;3370;47.712;9.082;2022-09-29T17:38:16;12.63;;;4.20;;
6667;SDS011;3370;47.712;9.082;2022-09-29T17:40:54;4.07;;;3.07;;
6667;SDS011;3370;47.712;9.082;2022-09-29T17:43:30;3.83;;;3.23;;
6667;SDS011;3370;47.712;9.082;2022-09-29T17:45:57;3.40;;;3.10;;
6667;SDS011;3370;47.712;9.082;2022-09-29T17:48:25;4.17;;;3.50;;
6667;SDS011;3370;47.712;9.082;2022-09-29T17:50:54;6.00;;;4.47;;
6667;SDS011;3370;47.712;9.082;2022-09-29T17:53:23;8.50;;;4.20;;
6667;SDS011;3370;47.712;9.082;2022-09-29T17:55:51;5.23;;;3.00;;
6667;SDS011;3370;47.712;9.082;2022-09-29T17:58:20;2.70;;;2.50;;
6667;SDS011;3370;47.712;9.082;2022-09-29T18:00:47;3.33;;;2.17;;
6667;SDS011;3370;47.712;9.082;2022-09-29T18:03:16;2.53;;;2.33;;
6667;SDS011;3370;47.712;9.082;2022-09-29T18:05:45;4.73;;;3.07;;
6667;SDS011;3370;47.712;9.082;2022-09-29T18:08:14;6.10;;;4.93;;
6667;SDS011;3370;47.712;9.082;2022-09-29T18:10:52;5.23;;;4.73;;
6667;SDS011;3370;47.712;9.082;2022-09-29T18:13:26;4.40;;;3.40;;
6667;SDS011;3370;47.712;9.082;2022-09-29T18:15:56;6.10;;;5.50;;
6667;SDS011;3370;47.712;9.082;2022-09-29T18:18:23;3.67;;;3.37;;
6667;SDS011;3370;47.712;9.082;2022-09-29T18:20:50;8.23;;;7.43;;
6667;SDS011;3370;47.712;9.082;2022-09-29T18:23:17;9.13;;;8.20;;
6667;SDS011;3370;47.712;9.082;2022-09-29T18:25:45;4.37;;;4.00;;
6667;SDS011;3370;47.712;9.082;2022-09-29T18:28:13;3.53;;;3.20;;
6667;SDS011;3370;47.712;9.082;2022-09-29T18:30:40;3.67;;;2.80;;
6667;SDS011;3370;47.712;9.082;2022-09-29T18:33:12;3.10;;;2.80;;
6667;SDS011;3370;47.712;9.082;2022-09-29T18:35:44;2.90;;;2.70;;
6667;SDS011;3370;47.712;9.082;2022-09-29T18:38:15;3.13;;;2.87;;
6667;SDS011;3370;47.712;9.082;2022-09-29T18:40:41;3.10;;;2.90;;
6667;SDS011;3370;47.712;9.082;2022-09-29T18:43:09;4.07;;;3.60;;
6667;SDS011;3370;47.712;9.082;2022-09-29T18:45:37;4.90;;;3.90;;
6667;SDS011;3370;47.712;9.082;2022-09-29T18:48:09;3.90;;;3.60;;
6667;SDS011;3370;47.712;9.082;2022-09-29T18:50:42;5.43;;;3.80;;
6667;SDS011;3370;47.712;9.082;2022-09-29T18:53:11;8.77;;;5.70;;
6667;SDS011;3370;47.712;9.082;2022-09-29T18:55:40;6.60;;;5.67;;
6667;SDS011;3370;47.712;9.082;2022-09-29T18:58:08;7.97;;;6.60;;
6667;SDS011;3370;47.712;9.082;2022-09-29T19:00:40;13.13;;;8.60;;
6667;SDS011;3370;47.712;9.082;2022-09-29T19:03:09;8.03;;;6.30;;
6667;SDS011;3370;47.712;9.082;2022-09-29T19:05:35;11.50;;;5.80;;
6667;SDS011;3370;47.712;9.082;2022-09-29T19:08:04;7.13;;;6.40;;
6667;SDS011;3370;47.712;9.082;2022-09-29T19:10:31;6.17;;;5.60;;
6667;SDS011;3370;47.712;9.082;2022-09-29T19:13:00;4.67;;;4.23;;
6667;SDS011;3370;47.712;9.082;2022-09-29T19:15:31;4.80;;;4.40;;
6667;SDS011;3370;47.712;9.082;2022-09-29T19:18:00;5.17;;;4.70;;
6667;SDS011;3370;47.712;9.082;2022-09-29T19:20:27;4.57;;;4.27;;
6667;SDS011;3370;47.712;9.082;2022-09-29T19:22:54;5.13;;;4.57;;